Time;durP1;ratioP1;P1;durP2;ratioP2;P2;SDS_P1;SDS_P2;PMS_P1;PMS_P2;Temp;Humidity;BMP_temperature;BMP_pressure;BME280_temperature;BME280_humidity;BME280_pressure;Samples;Min_cycle;Max_cycle;Signal;HPM_P1;HPM_P2
2024/02/02 00:02:30;;;;;;;12.10;4.30;;;;;;;6.10;63.59;99723.35;232323;203;138309;-60
2024/02/02 00:07:34;;;;;;;12.50;4.60;;;;;;;6.07;63.16;99720.61;232301;203;137542;-60
2024/02/02 00:12:37;;;;;;;13.70;4.50;;;;;;;6.10;63.08;99722.28;232288;203;151599;-60
2024/02/02 00:17:40;;;;;;;13.00;4.20;;;;;;;6.18;62.75;99725.02;232002;203;137381;-61
2024/02/02 00:22:43;;;;;;;11.40;4.30;;;;;;;6.17;62.54;99724.70;232252;200;136779;-58
2024/02/02 00:27:47;;;;;;;17.20;4.70;;;;;;;6.12;62.64;99733.50;232301;203;152051;-59
2024/02/02 00:32:50;;;;;;;11.40;4.80;;;;;;;6.05;62.89;99744.27;232240;203;137012;-60
2024/02/02 00:37:54;;;;;;;13.70;5.30;;;;;;;6.08;63.00;99741.74;232450;200;137870;-59
2024/02/02 00:42:57;;;;;;;16.20;4.80;;;;;;;6.10;63.08;99744.30;232399;203;151840;-58
2024/02/02 00:48:02;;;;;;;16.70;4.90;;;;;;;6.10;63.04;99738.87;232320;201;136475;-58
2024/02/02 00:53:07;;;;;;;16.00;4.70;;;;;;;6.12;63.01;99739.14;232310;203;137172;-58
2024/02/02 00:58:10;;;;;;;13.30;4.70;;;;;;;6.13;62.97;99740.69;232266;203;151247;-58
2024/02/02 01:03:13;;;;;;;14.60;4.40;;;;;;;6.06;62.77;99743.77;232226;203;137916;-58
2024/02/02 01:08:17;;;;;;;14.10;4.40;;;;;;;5.99;62.95;99744.48;232366;203;137241;-58
2024/02/02 01:13:20;;;;;;;14.10;4.40;;;;;;;6.02;62.99;99742.63;232453;203;151325;-57
2024/02/02 01:18:24;;;;;;;13.60;4.10;;;;;;;6.09;62.65;99743.96;232336;203;136826;-57
2024/02/02 01:23:28;;;;;;;13.40;4.20;;;;;;;6.09;62.50;99741.35;232339;201;136711;-58
2024/02/02 01:28:31;;;;;;;10.90;4.00;;;;;;;6.07;62.54;99744.04;232333;203;152199;-57
2024/02/02 01:33:34;;;;;;;11.60;4.40;;;;;;;6.10;62.43;99742.20;232265;203;136656;-58
2024/02/02 01:38:38;;;;;;;15.00;4.00;;;;;;;6.13;62.24;99736.27;232380;203;137456;-58
2024/02/02 01:43:41;;;;;;;15.10;4.10;;;;;;;6.14;62.29;99738.54;232294;203;151180;-59
2024/02/02 01:48:44;;;;;;;10.70;3.40;;;;;;;6.12;62.02;99744.22;232393;203;137453;-58
2024/02/02 01:53:47;;;;;;;13.80;3.90;;;;;;;6.09;61.97;99740.46;232341;200;137711;-58
2024/02/02 01:58:51;;;;;;;13.80;3.80;;;;;;;6.10;62.15;99739.55;232223;199;151309;-59
2024/02/02 02:03:54;;;;;;;13.00;4.10;;;;;;;6.09;62.01;99742.40;232284;203;136710;-58
2024/02/02 02:08:58;;;;;;;15.40;4.00;;;;;;;6.05;62.10;99744.29;232272;203;137386;-60
2024/02/02 02:14:01;;;;;;;10.40;4.10;;;;;;;6.05;62.15;99749.23;232205;203;151433;-59
2024/02/02 02:19:05;;;;;;;15.60;4.70;;;;;;;6.01;62.22;99741.08;232379;203;137360;-59
2024/02/02 02:24:09;;;;;;;13.20;4.30;;;;;;;6.01;62.42;99747.60;232366;201;137560;-58
2024/02/02 02:29:12;;;;;;;18.70;4.30;;;;;;;6.05;62.19;99744.84;232394;201;151478;-58
2024/02/02 02:34:15;;;;;;;17.90;4.60;;;;;;;6.00;62.32;99744.43;232337;196;137152;-58
2024/02/02 02:39:18;;;;;;;12.40;4.00;;;;;;;5.97;62.29;99747.05;232295;204;137908;-58
2024/02/02 02:44:22;;;;;;;13.10;4.50;;;;;;;5.91;62.47;99750.69;232224;197;152585;-59
2024/02/02 02:49:25;;;;;;;17.80;4.50;;;;;;;5.92;62.69;99744.33;232450;200;145632;-59
2024/02/02 02:54:28;;;;;;;17.00;4.50;;;;;;;5.93;62.62;99736.23;232362;196;139125;-60
2024/02/02 02:59:32;;;;;;;15.10;4.20;;;;;;;5.93;62.62;99742.55;232326;203;152360;-59
2024/02/02 03:04:35;;;;;;;13.70;4.30;;;;;;;5.87;62.75;99753.98;232203;203;137890;-59
2024/02/02 03:09:38;;;;;;;19.10;4.70;;;;;;;5.84;62.78;99752.49;232177;200;137475;-60
2024/02/02 03:14:42;;;;;;;16.30;4.70;;;;;;;5.87;63.02;99750.27;231612;197;151691;-59
2024/02/02 03:19:45;;;;;;;16.10;5.20;;;;;;;5.86;63.00;99754.17;232190;203;136677;-60
2024/02/02 03:24:48;;;;;;;19.30;5.40;;;;;;;5.84;63.11;99755.66;232405;200;139176;-60
2024/02/02 03:29:52;;;;;;;15.50;4.70;;;;;;;5.86;63.12;99759.84;232311;203;151959;-61
2024/02/02 03:34:55;;;;;;;11.60;4.10;;;;;;;5.83;63.03;99765.90;232268;196;137298;-58
2024/02/02 03:39:58;;;;;;;18.50;4.70;;;;;;;5.81;63.23;99776.17;232306;203;136822;-59
2024/02/02 03:45:03;;;;;;;18.20;5.00;;;;;;;5.79;63.10;99772.01;232375;203;151997;-59
2024/02/02 03:50:07;;;;;;;18.70;5.10;;;;;;;5.79;63.31;99778.52;232291;203;136765;-59
2024/02/02 03:55:11;;;;;;;11.90;4.20;;;;;;;5.81;63.00;99793.27;232378;199;136912;-59
2024/02/02 04:00:15;;;;;;;18.70;4.70;;;;;;;5.82;62.99;99802.76;232353;200;151294;-60
2024/02/02 04:05:18;;;;;;;14.70;4.50;;;;;;;5.78;63.08;99797.23;232275;199;138277;-59
2024/02/02 04:10:21;;;;;;;14.70;3.90;;;;;;;5.82;62.78;99798.88;232383;203;136633;-59
2024/02/02 04:15:24;;;;;;;14.90;4.40;;;;;;;5.80;62.51;99806.52;232391;200;151622;-59
2024/02/02 04:20:29;;;;;;;20.10;4.30;;;;;;;5.81;62.32;99810.52;232344;203;140513;-58
2024/02/02 04:25:33;;;;;;;14.50;3.80;;;;;;;5.81;62.22;99816.86;232398;199;137405;-59
2024/02/02 04:30:36;;;;;;;15.00;3.90;;;;;;;5.87;62.09;99820.20;232417;203;151089;-60
2024/02/02 04:35:40;;;;;;;9.00;3.00;;;;;;;5.90;61.84;99823.98;232264;203;139643;-59
2024/02/02 04:40:46;;;;;;;17.10;3.70;;;;;;;5.90;61.24;99825.21;232289;200;137423;-59
2024/02/02 04:45:49;;;;;;;12.10;3.30;;;;;;;5.90;60.95;99826.64;232281;200;152067;-59
2024/02/02 04:50:52;;;;;;;14.10;3.50;;;;;;;5.90;60.89;99831.55;232282;203;139563;-59
2024/02/02 04:55:56;;;;;;;18.10;4.00;;;;;;;5.88;61.16;99836.53;232329;203;137278;-59
2024/02/02 05:00:59;;;;;;;14.60;4.10;;;;;;;5.86;61.45;99843.11;232354;197;151952;-58
2024/02/02 05:06:02;;;;;;;16.50;4.10;;;;;;;5.89;61.74;99844.08;232286;203;137253;-60
2024/02/02 05:11:06;;;;;;;12.40;4.20;;;;;;;5.86;61.70;99855.45;232245;203;139300;-59
2024/02/02 05:16:09;;;;;;;15.50;4.30;;;;;;;5.81;62.10;99855.77;232342;203;151394;-59
2024/02/02 05:21:17;;;;;;;15.90;4.10;;;;;;;5.80;62.23;99859.30;232335;203;139032;-59
2024/02/02 05:26:20;;;;;;;19.90;5.80;;;;;;;5.82;62.25;99858.75;232347;196;136481;-59
2024/02/02 05:31:23;;;;;;;17.80;5.20;;;;;;;5.78;62.24;99865.73;232382;200;151460;-58
2024/02/02 05:36:26;;;;;;;19.30;5.60;;;;;;;5.69;62.42;99878.47;232294;199;136815;-59
2024/02/02 05:41:30;;;;;;;16.40;5.30;;;;;;;5.61;62.71;99882.77;232307;199;137213;-59
2024/02/02 05:46:33;;;;;;;21.50;5.90;;;;;;;5.61;63.03;99882.75;232306;203;152422;-60
2024/02/02 05:51:40;;;;;;;16.90;5.50;;;;;;;5.67;62.96;99881.72;232287;203;137615;-60
2024/02/02 05:56:43;;;;;;;15.30;6.10;;;;;;;5.70;63.29;99882.33;232299;203;137376;-58
2024/02/02 06:01:46;;;;;;;20.40;6.40;;;;;;;5.71;63.36;99881.77;232269;203;151140;-59
2024/02/02 06:06:49;;;;;;;22.20;6.30;;;;;;;5.71;63.50;99883.53;232455;203;137348;-59
2024/02/02 06:11:53;;;;;;;20.90;7.00;;;;;;;5.76;63.68;99884.77;232341;203;137424;-59
2024/02/02 06:16:56;;;;;;;19.80;6.30;;;;;;;5.83;63.82;99883.01;232340;203;151836;-59
2024/02/02 06:21:59;;;;;;;18.70;7.00;;;;;;;5.99;63.64;99888.73;232224;203;137869;-59
2024/02/02 06:27:03;;;;;;;18.20;7.10;;;;;;;6.07;63.66;99885.87;232257;201;138940;-58
2024/02/02 06:32:07;;;;;;;18.60;6.70;;;;;;;6.18;63.30;99883.23;231798;203;152072;-58
2024/02/02 06:37:10;;;;;;;16.20;5.90;;;;;;;6.23;63.18;99886.25;232427;203;137552;-58
2024/02/02 06:42:13;;;;;;;66.10;41.10;;;;;;;6.25;63.57;99893.92;232367;203;136760;-61
2024/02/02 06:47:17;;;;;;;18.80;6.80;;;;;;;6.22;63.36;99895.79;232314;203;152574;-59
2024/02/02 06:52:21;;;;;;;14.40;5.60;;;;;;;6.14;63.72;99906.25;232266;196;139913;-59
2024/02/02 06:57:29;;;;;;;48.10;27.80;;;;;;;6.11;63.82;99909.15;232246;200;137896;-60
2024/02/02 07:02:33;;;;;;;16.50;5.30;;;;;;;6.07;64.17;99907.70;232358;199;151338;-59
2024/02/02 07:07:36;;;;;;;15.70;4.90;;;;;;;6.05;64.28;99915.51;232340;203;137280;-59
2024/02/02 07:12:51;;;;;;;22.70;6.00;;;;;;;6.05;64.33;99921.33;232445;203;137114;-59
2024/02/02 07:17:55;;;;;;;41.20;24.00;;;;;;;5.99;64.57;99930.14;232305;199;151325;-59
2024/02/02 07:23:01;;;;;;;23.50;9.80;;;;;;;6.00;65.06;99940.66;232224;203;138305;-60
2024/02/02 07:28:06;;;;;;;19.40;6.60;;;;;;;6.10;64.89;99926.63;232304;199;137457;-60
2024/02/02 07:33:18;;;;;;;15.10;5.30;;;;;;;6.12;64.53;99932.20;232341;200;151301;-60
2024/02/02 07:38:24;;;;;;;17.70;5.70;;;;;;;6.09;64.40;99935.11;232248;203;137209;-60
2024/02/02 07:43:32;;;;;;;17.70;5.30;;;;;;;5.98;64.30;99928.77;232360;199;136677;-60
2024/02/02 07:48:37;;;;;;;18.30;4.90;;;;;;;6.00;64.36;99930.83;232410;199;151674;-60
2024/02/02 07:53:43;;;;;;;10.10;2.60;;;;;;;6.02;64.07;99929.70;232272;203;137714;-60
2024/02/02 07:58:47;;;;;;;15.50;4.40;;;;;;;6.07;63.93;99932.38;232243;200;136691;-58
2024/02/02 08:03:51;;;;;;;10.10;4.00;;;;;;;6.14;63.79;99936.90;232301;203;151239;-58
2024/02/02 08:08:57;;;;;;;15.00;4.40;;;;;;;6.23;63.59;99938.77;232334;200;138877;-60
2024/02/02 08:14:01;;;;;;;17.30;4.10;;;;;;;6.33;63.30;99950.98;232412;200;136508;-62
2024/02/02 08:19:04;;;;;;;16.30;4.30;;;;;;;6.26;62.98;99959.11;232518;199;151106;-60
2024/02/02 08:24:07;;;;;;;17.30;4.40;;;;;;;6.26;62.37;99956.66;232296;203;136605;-59
2024/02/02 08:29:11;;;;;;;19.10;4.60;;;;;;;6.13;61.93;99954.91;232348;197;137096;-61
2024/02/02 08:34:14;;;;;;;57.70;32.00;;;;;;;6.15;62.23;99960.14;232301;199;151826;-60
2024/02/02 08:39:17;;;;;;;18.70;5.60;;;;;;;6.30;61.46;99970.27;232253;203;138038;-59
2024/02/02 08:44:23;;;;;;;16.80;3.50;;;;;;;6.38;60.09;99964.55;232383;200;140047;-59
2024/02/02 08:49:42;;;;;;;13.80;3.40;;;;;;;6.41;59.05;99967.48;232449;203;152109;-59
2024/02/02 08:54:47;;;;;;;15.50;4.60;;;;;;;6.36;58.14;99972.20;232387;203;137335;-60
2024/02/02 08:59:52;;;;;;;215.80;142.70;;;;;;;6.35;58.95;99977.86;232081;199;137904;-59
2024/02/02 09:05:06;;;;;;;22.10;6.80;;;;;;;6.39;58.44;99982.16;232218;203;151449;-59
2024/02/02 09:10:31;;;;;;;15.00;4.20;;;;;;;6.40;58.36;99985.46;232232;196;137363;-60
2024/02/02 09:15:35;;;;;;;19.20;4.20;;;;;;;6.57;58.95;99980.05;232186;203;138103;-60
2024/02/02 09:20:50;;;;;;;19.20;4.80;;;;;;;6.60;59.00;99979.75;232260;200;151466;-59
2024/02/02 09:25:53;;;;;;;17.20;5.10;;;;;;;6.57;59.31;99975.45;232105;197;137371;-60
2024/02/02 09:30:57;;;;;;;20.20;4.80;;;;;;;6.53;59.88;99972.94;232406;200;137041;-59
2024/02/02 09:36:06;;;;;;;64.90;34.70;;;;;;;6.56;60.27;99971.96;232215;203;151739;-62
2024/02/02 09:41:35;;;;;;;18.40;6.40;;;;;;;6.62;59.93;99974.94;232264;203;137682;-59
2024/02/02 09:46:44;;;;;;;17.80;5.10;;;;;;;6.56;59.13;99970.22;232318;199;136518;-57
2024/02/02 09:52:02;;;;;;;15.20;4.20;;;;;;;6.53;58.97;99965.69;232193;200;152383;-56
2024/02/02 09:57:32;;;;;;;17.90;5.40;;;;;;;6.41;59.06;99971.70;232266;203;136850;-58
2024/02/02 10:02:58;;;;;;;17.70;4.80;;;;;;;6.44;59.22;99971.12;232233;201;137015;-57
2024/02/02 10:08:20;;;;;;;18.30;4.70;;;;;;;6.49;59.14;99969.86;232214;200;153482;-57
2024/02/02 10:13:46;;;;;;;19.80;5.00;;;;;;;6.70;59.49;99974.85;232388;200;137573;-57
2024/02/02 10:19:34;;;;;;;21.30;5.40;;;;;;;6.91;59.03;99966.98;232414;203;136569;-57
2024/02/02 10:24:45;;;;;;;20.20;5.50;;;;;;;6.82;58.61;99961.98;232099;198;152598;-56
2024/02/02 10:30:40;;;;;;;20.20;4.80;;;;;;;6.86;58.55;99962.55;232268;200;136908;-58
2024/02/02 10:36:01;;;;;;;23.40;4.70;;;;;;;6.94;58.72;99951.71;232144;195;136995;-57
2024/02/02 10:41:19;;;;;;;20.80;5.10;;;;;;;6.87;58.92;99949.11;232172;199;151656;-58
2024/02/02 10:46:52;;;;;;;19.20;5.20;;;;;;;6.88;59.00;99939.20;232275;203;138982;-58
2024/02/02 10:52:06;;;;;;;23.20;4.80;;;;;;;7.11;58.35;99927.68;232184;199;137917;-57
2024/02/02 10:57:26;;;;;;;26.40;5.00;;;;;;;7.18;56.81;99923.94;232174;199;152086;-58
2024/02/02 11:02:44;;;;;;;14.90;4.60;;;;;;;7.13;56.67;99918.44;232085;203;137196;-58
2024/02/02 11:08:03;;;;;;;15.30;4.20;;;;;;;7.07;56.94;99913.89;231759;203;136643;-57
2024/02/02 11:13:28;;;;;;;19.00;4.50;;;;;;;6.97;56.89;99909.45;232247;200;151556;-57
2024/02/02 11:19:00;;;;;;;16.90;4.30;;;;;;;6.90;56.44;99906.88;232149;200;137955;-58
2024/02/02 11:24:25;;;;;;;22.90;4.00;;;;;;;6.78;56.36;99904.10;232207;203;138347;-57
2024/02/02 11:29:38;;;;;;;15.70;4.00;;;;;;;6.79;56.51;99889.77;232194;203;151271;-57
2024/02/02 11:35:00;;;;;;;19.90;4.40;;;;;;;6.79;56.36;99877.95;232202;203;137652;-58
2024/02/02 11:40:08;;;;;;;16.00;4.50;;;;;;;7.09;56.23;99864.39;232146;203;137559;-57
2024/02/02 11:45:19;;;;;;;18.50;4.20;;;;;;;7.52;54.60;99854.23;232166;201;152258;-57
2024/02/02 11:50:26;;;;;;;17.90;4.70;;;;;;;7.85;53.18;99857.77;232231;195;137309;-59
2024/02/02 11:55:38;;;;;;;16.00;4.50;;;;;;;7.86;52.39;99855.45;232350;203;137785;-56
2024/02/02 12:01:08;;;;;;;17.00;4.70;;;;;;;7.94;52.38;99852.33;232225;203;152255;-57
2024/02/02 12:06:19;;;;;;;24.10;5.20;;;;;;;8.24;51.62;99848.30;232129;203;137633;-58
2024/02/02 12:11:28;;;;;;;19.00;4.80;;;;;;;8.32;51.31;99843.79;232095;200;137284;-58
2024/02/02 12:16:47;;;;;;;18.90;5.00;;;;;;;8.20;51.32;99841.05;232194;203;151364;-58
2024/02/02 12:21:51;;;;;;;16.10;5.10;;;;;;;8.09;51.67;99840.61;232081;203;139510;-58
2024/02/02 12:26:55;;;;;;;17.80;4.60;;;;;;;7.88;52.10;99828.16;232106;203;136839;-57
2024/02/02 12:31:58;;;;;;;17.80;4.70;;;;;;;7.83;52.73;99818.83;232102;200;153226;-57
2024/02/02 12:37:02;;;;;;;18.70;4.40;;;;;;;8.05;52.83;99813.01;232343;203;236787;-57
2024/02/02 12:42:06;;;;;;;19.20;4.60;;;;;;;8.33;52.10;99808.41;232260;203;140280;-58
2024/02/02 12:47:10;;;;;;;17.30;4.20;;;;;;;8.57;50.92;99800.67;232238;203;151473;-58
2024/02/02 12:52:13;;;;;;;17.70;4.20;;;;;;;8.63;50.46;99798.70;232310;200;137843;-58
2024/02/02 12:57:16;;;;;;;14.30;4.40;;;;;;;8.48;50.78;99793.11;232245;203;137259;-58
2024/02/02 13:02:20;;;;;;;19.20;4.50;;;;;;;8.45;51.31;99792.35;232283;200;151901;-58
2024/02/02 13:07:25;;;;;;;16.90;4.00;;;;;;;8.48;51.25;99781.09;232376;203;137499;-58
2024/02/02 13:12:28;;;;;;;19.70;4.70;;;;;;;8.48;51.19;99773.46;232332;203;137493;-56
2024/02/02 13:17:32;;;;;;;18.20;4.70;;;;;;;8.50;50.67;99774.08;232339;203;151384;-58
2024/02/02 13:22:37;;;;;;;19.50;4.00;;;;;;;8.55;50.47;99766.81;232322;200;137142;-58
2024/02/02 13:27:43;;;;;;;17.30;4.40;;;;;;;8.60;50.25;99762.19;232385;203;138055;-58
2024/02/02 13:32:48;;;;;;;17.90;4.10;;;;;;;8.62;50.24;99748.68;232240;203;152156;-57
2024/02/02 13:37:52;;;;;;;16.40;4.10;;;;;;;8.67;49.96;99746.16;232359;203;137013;-57
2024/02/02 13:42:58;;;;;;;12.50;3.70;;;;;;;8.66;49.73;99743.17;232447;203;136912;-58
2024/02/02 13:48:03;;;;;;;14.70;3.90;;;;;;;8.70;49.65;99732.04;232268;203;152931;-58
2024/02/02 13:53:06;;;;;;;21.20;4.70;;;;;;;8.69;49.68;99722.35;232335;203;136956;-58
2024/02/02 13:58:10;;;;;;;16.00;4.20;;;;;;;8.59;50.16;99710.75;232323;200;137905;-56
2024/02/02 14:03:17;;;;;;;20.20;4.70;;;;;;;8.62;50.41;99704.45;232301;200;152757;-57
2024/02/02 14:08:21;;;;;;;17.70;5.00;;;;;;;8.52;50.53;99703.09;232324;199;136803;-57
2024/02/02 14:13:24;;;;;;;22.60;4.90;;;;;;;8.44;50.87;99701.15;232389;203;137941;-58
2024/02/02 14:18:29;;;;;;;28.00;13.20;;;;;;;8.38;51.18;99702.45;232363;203;153256;-58
2024/02/02 14:23:32;;;;;;;15.10;4.60;;;;;;;8.34;51.72;99705.83;232345;203;139095;-58
2024/02/02 14:28:35;;;;;;;16.20;4.70;;;;;;;8.33;51.74;99709.00;232288;199;138114;-58
2024/02/02 14:33:39;;;;;;;19.40;5.60;;;;;;;8.27;52.10;99706.98;232288;203;151731;-57
2024/02/02 14:38:45;;;;;;;17.20;4.80;;;;;;;8.21;52.66;99708.24;232170;200;137295;-57
2024/02/02 14:43:48;;;;;;;27.90;5.40;;;;;;;8.18;52.88;99705.89;232218;203;137565;-58
2024/02/02 14:48:51;;;;;;;18.90;5.40;;;;;;;8.15;53.30;99696.88;232435;199;151955;-57
2024/02/02 14:53:55;;;;;;;17.80;5.30;;;;;;;8.09;53.70;99689.86;232245;200;137319;-58
2024/02/02 14:59:08;;;;;;;18.80;5.70;;;;;;;8.05;53.83;99685.09;232341;200;137700;-57
2024/02/02 15:04:13;;;;;;;21.00;5.10;;;;;;;7.98;53.80;99675.13;232296;203;152240;-57
2024/02/02 15:09:16;;;;;;;104.20;70.00;;;;;;;7.95;53.94;99662.00;232275;203;137329;-57
2024/02/02 15:14:20;;;;;;;19.10;6.90;;;;;;;7.99;53.67;99651.39;232299;200;138287;-57
2024/02/02 15:19:23;;;;;;;17.70;4.60;;;;;;;7.94;53.42;99654.80;232400;200;151999;-63
2024/02/02 15:24:27;;;;;;;18.20;5.60;;;;;;;7.88;53.56;99654.52;232127;203;136738;-63
2024/02/02 15:29:32;;;;;;;18.50;5.40;;;;;;;7.84;53.50;99652.02;232099;199;137459;-64
2024/02/02 15:34:36;;;;;;;16.60;5.20;;;;;;;7.83;53.49;99652.23;232268;203;151958;-62
2024/02/02 15:39:39;;;;;;;23.20;6.10;;;;;;;7.80;53.96;99637.16;232290;197;137581;-64
2024/02/02 15:44:43;;;;;;;22.80;5.50;;;;;;;7.77;53.65;99627.74;232261;203;137344;-61
2024/02/02 15:49:48;;;;;;;17.80;5.30;;;;;;;7.68;53.66;99630.21;232176;203;151648;-61
2024/02/02 15:54:53;;;;;;;16.50;4.90;;;;;;;7.63;53.64;99624.77;232241;203;137556;-62
2024/02/02 15:59:56;;;;;;;18.20;5.50;;;;;;;7.62;53.84;99619.39;232066;200;137214;-64
2024/02/02 16:05:00;;;;;;;22.10;5.80;;;;;;;7.62;53.91;99608.23;232026;203;151933;-64
2024/02/02 16:10:04;;;;;;;12.60;4.90;;;;;;;7.64;53.92;99600.02;232262;203;137088;-64
2024/02/02 16:15:08;;;;;;;15.40;5.00;;;;;;;7.63;53.94;99591.58;232278;203;136732;-64
2024/02/02 16:20:12;;;;;;;17.60;5.70;;;;;;;7.65;53.84;99591.86;232186;203;151840;-63
2024/02/02 16:25:17;;;;;;;21.70;6.30;;;;;;;7.64;53.91;99586.27;232266;203;137028;-64
2024/02/02 16:30:20;;;;;;;18.10;6.30;;;;;;;7.59;53.96;99576.05;232209;203;137509;-64
2024/02/02 16:35:23;;;;;;;55.40;30.10;;;;;;;7.60;54.26;99568.59;232257;200;152923;-63
2024/02/02 16:40:27;;;;;;;19.90;8.80;;;;;;;7.67;54.20;99570.23;232196;203;136907;-64
2024/02/02 16:45:30;;;;;;;20.60;6.20;;;;;;;7.66;53.85;99567.63;232264;200;136459;-64
2024/02/02 16:50:35;;;;;;;21.90;9.00;;;;;;;7.67;54.02;99562.46;232027;199;152977;-63
2024/02/02 16:55:38;;;;;;;19.40;6.40;;;;;;;7.67;53.80;99560.88;232317;203;138086;-63
2024/02/02 17:00:42;;;;;;;22.00;6.90;;;;;;;7.60;53.59;99567.16;232248;199;137336;-62
2024/02/02 17:05:45;;;;;;;18.80;6.60;;;;;;;7.50;53.63;99563.15;232258;203;151453;-63
2024/02/02 17:10:51;;;;;;;25.20;7.10;;;;;;;7.44;53.75;99557.41;232244;200;137847;-63
2024/02/02 17:15:54;;;;;;;;;;;;;;;7.34;53.94;99543.84;231719;203;136908;-51
2024/02/02 17:20:58;;;;;;;17.80;5.60;;;;;;;7.27;54.17;99534.95;231839;200;155244;-55
2024/02/02 17:26:02;;;;;;;16.70;6.80;;;;;;;7.20;54.32;99535.08;231836;201;136551;-57
2024/02/02 17:31:09;;;;;;;16.70;5.80;;;;;;;7.21;54.55;99520.90;232100;204;136729;-57
2024/02/02 17:36:16;;;;;;;14.30;5.20;;;;;;;7.26;54.53;99524.77;231820;198;151879;-57
2024/02/02 17:41:19;;;;;;;17.80;5.60;;;;;;;7.29;54.62;99510.54;231722;199;137599;-57
2024/02/02 17:46:23;;;;;;;20.00;5.60;;;;;;;7.33;54.62;99495.89;232126;200;136545;-53
2024/02/02 17:51:27;;;;;;;15.30;5.70;;;;;;;7.33;54.43;99489.02;232200;203;153469;-56
2024/02/02 17:56:31;;;;;;;15.00;5.70;;;;;;;7.22;54.60;99485.23;232253;203;137745;-56
2024/02/02 18:01:35;;;;;;;17.30;6.30;;;;;;;7.20;54.79;99479.86;232298;199;139834;-57
2024/02/02 18:06:38;;;;;;;14.60;6.00;;;;;;;7.21;54.87;99474.52;232056;203;151401;-56
2024/02/02 18:11:42;;;;;;;18.40;7.40;;;;;;;7.26;54.79;99472.91;232202;203;137332;-57
2024/02/02 18:16:45;;;;;;;17.70;8.00;;;;;;;7.26;54.77;99461.23;232235;198;137168;-57
2024/02/02 18:21:48;;;;;;;27.70;8.00;;;;;;;7.26;54.82;99447.98;232058;203;152855;-56
2024/02/02 18:26:51;;;;;;;22.20;8.70;;;;;;;7.28;54.95;99432.39;232141;196;139786;-57
2024/02/02 18:31:55;;;;;;;23.10;9.60;;;;;;;7.26;54.86;99422.76;232221;203;137478;-58
2024/02/02 18:36:58;;;;;;;23.80;9.90;;;;;;;7.24;54.99;99410.66;231840;203;153428;-59
2024/02/02 18:42:05;;;;;;;28.30;10.10;;;;;;;7.19;55.06;99403.65;232073;197;136680;-55
2024/02/02 18:47:08;;;;;;;26.00;11.60;;;;;;;7.10;55.18;99398.73;232038;204;136828;-57
2024/02/02 18:52:12;;;;;;;30.70;13.50;;;;;;;7.05;55.76;99388.19;232132;197;153779;-55
2024/02/02 18:57:16;;;;;;;24.80;11.30;;;;;;;7.04;55.74;99386.64;232114;204;137855;-52
2024/02/02 19:02:19;;;;;;;26.60;11.30;;;;;;;7.02;55.68;99382.48;232066;200;137541;-55
2024/02/02 19:07:22;;;;;;;24.10;11.40;;;;;;;7.01;55.67;99373.04;232345;204;151955;-53
2024/02/02 19:12:26;;;;;;;88.40;63.40;;;;;;;7.00;55.85;99361.95;231697;204;137624;-52
2024/02/02 19:17:30;;;;;;;28.10;12.20;;;;;;;7.04;56.01;99357.70;232145;204;140981;-53
2024/02/02 19:22:33;;;;;;;29.30;11.10;;;;;;;7.04;55.84;99346.80;232019;204;151443;-54
2024/02/02 19:27:36;;;;;;;23.10;10.80;;;;;;;7.00;55.82;99332.30;231996;200;137710;-57
2024/02/02 19:32:42;;;;;;;23.20;9.90;;;;;;;6.95;55.95;99312.60;232205;204;137763;-55
2024/02/02 19:37:45;;;;;;;23.20;9.70;;;;;;;6.92;56.05;99295.30;232246;201;151242;-52
2024/02/02 19:42:49;;;;;;;25.60;9.10;;;;;;;6.86;56.15;99279.46;232060;204;137633;-55
2024/02/02 19:47:52;;;;;;;22.00;8.90;;;;;;;6.80;56.42;99279.38;231258;204;139243;-55
2024/02/02 19:52:56;;;;;;;328.40;227.10;;;;;;;6.76;56.78;99268.08;232098;200;152182;-55
2024/02/02 19:58:00;;;;;;;26.20;14.70;;;;;;;6.85;57.00;99253.41;232081;200;137907;-56
2024/02/02 20:03:05;;;;;;;24.20;9.30;;;;;;;6.84;56.82;99251.50;232208;204;137544;-55
2024/02/02 20:08:08;;;;;;;18.50;7.90;;;;;;;6.87;56.89;99247.67;232143;201;152067;-56
2024/02/02 20:13:12;;;;;;;162.60;116.10;;;;;;;6.91;57.18;99240.48;232158;201;137673;-54
2024/02/02 20:18:16;;;;;;;24.10;10.80;;;;;;;7.02;57.90;99224.64;231993;204;138303;-52
2024/02/02 20:23:20;;;;;;;18.60;8.20;;;;;;;7.01;56.97;99226.78;232061;201;151273;-54
2024/02/02 20:28:23;;;;;;;20.70;8.80;;;;;;;6.97;57.17;99209.18;232002;204;136986;-53
2024/02/02 20:33:27;;;;;;;16.30;7.40;;;;;;;6.94;57.32;99205.58;232142;204;137172;-52
2024/02/02 20:38:30;;;;;;;22.60;11.80;;;;;;;6.93;57.93;99208.10;232153;203;151826;-54
2024/02/02 20:43:33;;;;;;;18.20;8.60;;;;;;;7.01;57.88;99197.54;232347;204;138083;-51
2024/02/02 20:48:37;;;;;;;22.70;8.70;;;;;;;6.99;57.86;99198.64;232167;204;137451;-52
2024/02/02 20:53:40;;;;;;;18.10;8.50;;;;;;;7.03;57.86;99193.20;232169;204;152076;-54
2024/02/02 20:58:43;;;;;;;20.70;8.40;;;;;;;7.06;57.73;99189.70;232145;196;137377;-53
2024/02/02 21:03:47;;;;;;;19.20;8.60;;;;;;;7.02;57.99;99187.75;232112;204;137133;-52
2024/02/02 21:08:54;;;;;;;18.90;8.10;;;;;;;7.01;58.13;99186.75;232266;200;151418;-52
2024/02/02 21:13:57;;;;;;;16.60;7.40;;;;;;;7.02;58.26;99196.20;232170;204;137989;-52
2024/02/02 21:19:04;;;;;;;18.40;7.40;;;;;;;7.02;58.35;99192.16;232246;203;136787;-54
2024/02/02 21:24:07;;;;;;;17.50;7.60;;;;;;;7.00;58.58;99185.73;232079;200;152093;-53
2024/02/02 21:29:11;;;;;;;16.50;7.50;;;;;;;7.03;58.64;99185.59;232090;201;137865;-51
2024/02/02 21:34:14;;;;;;;17.80;7.80;;;;;;;7.01;58.75;99191.33;232021;197;137471;-53
2024/02/02 21:39:18;;;;;;;16.50;7.30;;;;;;;7.02;58.93;99187.25;232231;204;150459;-55
2024/02/02 21:44:21;;;;;;;15.60;6.00;;;;;;;7.00;59.19;99181.67;232013;201;136932;-53
2024/02/02 21:49:26;;;;;;;14.60;6.60;;;;;;;7.01;59.36;99192.02;232273;204;137340;-53
2024/02/02 21:54:30;;;;;;;15.70;6.40;;;;;;;7.04;60.07;99177.94;232096;196;151400;-55
2024/02/02 21:59:37;;;;;;;15.50;6.00;;;;;;;7.01;60.60;99172.30;232155;200;137106;-53
2024/02/02 22:04:41;;;;;;;14.00;5.80;;;;;;;6.95;61.81;99179.42;232073;204;136995;-52
2024/02/02 22:09:44;;;;;;;13.10;5.90;;;;;;;6.87;62.40;99169.72;232212;204;151721;-55
2024/02/02 22:14:47;;;;;;;10.20;5.20;;;;;;;6.83;63.42;99168.67;232176;204;136712;-53
2024/02/02 22:19:50;;;;;;;15.40;5.80;;;;;;;6.83;63.84;99161.98;232246;198;137703;-53
2024/02/02 22:24:54;;;;;;;11.50;5.30;;;;;;;6.85;64.13;99169.29;232315;204;154394;-52
2024/02/02 22:29:58;;;;;;;12.60;5.40;;;;;;;6.81;64.46;99164.20;232039;202;137271;-53
2024/02/02 22:35:01;;;;;;;12.40;5.30;;;;;;;6.75;64.70;99166.39;232084;203;137528;-51
2024/02/02 22:40:05;;;;;;;12.10;5.50;;;;;;;6.73;64.83;99166.46;232195;204;151565;-54
2024/02/02 22:45:10;;;;;;;12.90;5.40;;;;;;;6.75;65.17;99153.38;232212;204;137519;-52
2024/02/02 22:50:14;;;;;;;14.00;5.90;;;;;;;6.76;65.55;99140.42;232136;204;139690;-53
2024/02/02 22:55:18;;;;;;;11.50;5.20;;;;;;;6.76;66.11;99139.36;232284;204;151617;-54
2024/02/02 23:00:21;;;;;;;18.40;6.00;;;;;;;6.78;66.24;99130.82;232215;204;137199;-54
2024/02/02 23:05:24;;;;;;;10.50;5.00;;;;;;;6.77;66.73;99124.70;232100;198;137522;-54
2024/02/02 23:10:27;;;;;;;11.60;5.30;;;;;;;6.74;67.15;99122.00;232126;201;152888;-52
2024/02/02 23:15:31;;;;;;;13.10;5.40;;;;;;;6.81;67.28;99110.23;232184;196;137870;-53
2024/02/02 23:20:34;;;;;;;9.80;5.50;;;;;;;6.89;66.98;99082.35;232206;204;137724;-54
2024/02/02 23:25:37;;;;;;;10.30;5.60;;;;;;;6.95;66.64;99069.02;232246;200;151521;-54
2024/02/02 23:30:40;;;;;;;11.30;5.00;;;;;;;7.03;66.08;99062.82;232060;204;138242;-51
2024/02/02 23:35:44;;;;;;;14.00;5.50;;;;;;;7.07;65.72;99067.75;232043;200;136983;-55
2024/02/02 23:40:47;;;;;;;13.60;5.60;;;;;;;7.14;65.17;99061.44;232130;197;152162;-54